Time;durP1;ratioP1;P1;durP2;ratioP2;P2;SDS_P1;SDS_P2;PMS_P1;PMS_P2;Temp;Humidity;BMP_temperature;BMP_pressure;BME280_temperature;BME280_humidity;BME280_pressure;Samples;Min_cycle;Max_cycle;Signal;HPM_P1;HPM_P2
2023/10/04 00:00:27;;;;;;;2.20;0.30;;;13.50;99.90;;;;;;5053463;28;19921;-63
2023/10/04 00:02:54;;;;;;;4.38;0.68;;;13.80;99.90;;;;;;5053430;28;20053;-64
2023/10/04 00:05:24;;;;;;;0.98;0.43;;;13.60;99.90;;;;;;5053047;28;20041;-63
2023/10/04 00:07:52;;;;;;;4.05;0.55;;;13.50;99.90;;;;;;5052921;28;20110;-63
2023/10/04 00:10:19;;;;;;;0.85;0.40;;;13.50;99.90;;;;;;5053391;28;20053;-63
2023/10/04 00:12:45;;;;;;;0.20;0.20;;;13.80;99.90;;;;;;5053716;28;20811;-63
2023/10/04 00:15:13;;;;;;;0.20;0.20;;;13.70;99.90;;;;;;5053477;28;20084;-63
2023/10/04 00:17:42;;;;;;;0.52;0.25;;;13.40;99.90;;;;;;5053444;28;20049;-63
2023/10/04 00:20:17;;;;;;;2.67;0.52;;;14.00;99.90;;;;;;5053661;28;20090;-63
2023/10/04 00:22:46;;;;;;;0.47;0.47;;;13.30;99.90;;;;;;5053468;28;20045;-62
2023/10/04 00:25:22;;;;;;;8.20;0.32;;;13.00;99.90;;;;;;5053069;28;20545;-64
2023/10/04 00:27:49;;;;;;;0.65;0.38;;;13.30;99.90;;;;;;5053330;28;20128;-63
2023/10/04 00:30:17;;;;;;;0.20;0.20;;;13.40;99.90;;;;;;5053106;28;20049;-64
2023/10/04 00:32:44;;;;;;;0.40;0.40;;;13.50;99.90;;;;;;5052695;28;20412;-63
2023/10/04 00:35:19;;;;;;;0.30;0.30;;;13.60;99.90;;;;;;5053232;28;20049;-64
2023/10/04 00:37:51;;;;;;;0.25;0.25;;;13.40;99.90;;;;;;5053203;28;20091;-64
2023/10/04 00:40:21;;;;;;;0.22;0.22;;;13.40;99.90;;;;;;5052742;28;20059;-64
2023/10/04 00:42:51;;;;;;;0.30;0.30;;;13.50;99.90;;;;;;5052989;28;20057;-64
2023/10/04 00:45:17;;;;;;;1.02;0.25;;;13.50;99.90;;;;;;5052764;28;20088;-63
2023/10/04 00:47:47;;;;;;;;;;;13.50;99.90;;;;;;5053368;28;20049;-63
2023/10/04 00:50:15;;;;;;;0.77;0.40;;;13.40;99.90;;;;;;5052850;28;19924;-63
2023/10/04 00:52:52;;;;;;;0.28;0.28;;;13.50;99.90;;;;;;5052741;28;20041;-64
2023/10/04 00:55:19;;;;;;;0.38;0.38;;;13.10;99.90;;;;;;5051672;28;20049;-63
2023/10/04 00:57:48;;;;;;;3.40;0.30;;;13.40;99.90;;;;;;5052573;28;20048;-64
2023/10/04 01:00:15;;;;;;;0.20;0.20;;;13.60;99.90;;;;;;5052679;28;20450;-62
2023/10/04 01:02:41;;;;;;;0.28;0.28;;;13.50;99.90;;;;;;5052590;28;20095;-63
2023/10/04 01:05:07;;;;;;;0.15;0.15;;;13.90;99.90;;;;;;5052397;28;20107;-63
2023/10/04 01:07:35;;;;;;;0.22;0.22;;;13.20;99.90;;;;;;5052539;28;20060;-63
2023/10/04 01:10:01;;;;;;;3.40;1.05;;;13.40;99.90;;;;;;5052304;28;20132;-63
2023/10/04 01:12:26;;;;;;;;;;;13.40;99.90;;;;;;5052647;28;20044;-63
2023/10/04 01:14:53;;;;;;;0.30;0.30;;;13.20;99.90;;;;;;5052041;28;19932;-63
2023/10/04 01:17:26;;;;;;;1.13;1.00;;;13.40;99.90;;;;;;5052423;28;20388;-63
2023/10/04 01:19:53;;;;;;;0.30;0.30;;;13.10;99.90;;;;;;5051754;28;20099;-62
2023/10/04 01:22:18;;;;;;;0.45;0.45;;;13.60;99.90;;;;;;5051871;28;20045;-64
2023/10/04 01:24:44;;;;;;;0.30;0.30;;;13.40;99.90;;;;;;5050449;28;20041;-63
2023/10/04 01:27:10;;;;;;;0.40;0.40;;;13.60;99.90;;;;;;5051985;28;20060;-63
2023/10/04 01:29:38;;;;;;;0.25;0.25;;;13.30;99.90;;;;;;5052193;28;20601;-63
2023/10/04 01:32:07;;;;;;;0.20;0.20;;;13.30;99.90;;;;;;5052193;28;20060;-63
2023/10/04 01:34:33;;;;;;;0.88;0.47;;;13.30;99.90;;;;;;5051975;28;20045;-63
2023/10/04 01:36:59;;;;;;;3.20;1.17;;;13.60;99.90;;;;;;5051855;28;20579;-63
2023/10/04 01:39:30;;;;;;;0.82;0.82;;;13.30;99.90;;;;;;5051821;28;20485;-64
2023/10/04 01:41:56;;;;;;;0.20;0.20;;;13.40;99.90;;;;;;5051642;28;20056;-64
2023/10/04 01:44:21;;;;;;;0.50;0.40;;;13.30;99.90;;;;;;5051828;28;20408;-63
2023/10/04 01:46:47;;;;;;;0.30;0.30;;;13.70;99.90;;;;;;5051794;28;20090;-64
2023/10/04 01:49:13;;;;;;;0.20;0.20;;;13.40;99.90;;;;;;5050714;28;20060;-63
2023/10/04 01:51:42;;;;;;;0.20;0.20;;;13.40;99.90;;;;;;5051682;28;20128;-63
2023/10/04 01:54:09;;;;;;;0.20;0.20;;;13.10;99.90;;;;;;5051644;28;20060;-64
2023/10/04 01:56:37;;;;;;;0.30;0.30;;;12.90;99.90;;;;;;5051958;28;20399;-63
2023/10/04 01:59:04;;;;;;;4.82;0.57;;;13.00;99.90;;;;;;5051946;28;20049;-64
2023/10/04 02:01:31;;;;;;;0.17;0.17;;;12.90;99.90;;;;;;5051405;28;20048;-63
2023/10/04 02:03:59;;;;;;;0.28;0.28;;;13.20;99.90;;;;;;5051556;28;20515;-63
2023/10/04 02:06:25;;;;;;;0.28;0.20;;;13.20;99.90;;;;;;5051489;28;20080;-63
2023/10/04 02:08:50;;;;;;;0.30;0.30;;;12.60;99.90;;;;;;5051383;28;20107;-65
2023/10/04 02:11:16;;;;;;;0.10;0.10;;;12.60;99.90;;;;;;5051524;28;20484;-64
2023/10/04 02:13:42;;;;;;;3.33;1.75;;;12.60;99.90;;;;;;5051527;28;20033;-63
2023/10/04 02:16:16;;;;;;;1.55;0.38;;;12.60;99.90;;;;;;5051389;28;20114;-62
2023/10/04 02:18:42;;;;;;;0.10;0.10;;;12.50;99.90;;;;;;5051332;28;20573;-64
2023/10/04 02:21:09;;;;;;;0.20;0.20;;;12.50;99.90;;;;;;5051231;28;20484;-63
2023/10/04 02:23:35;;;;;;;0.38;0.38;;;12.80;99.90;;;;;;5051194;28;20098;-63
2023/10/04 02:26:00;;;;;;;0.75;0.75;;;12.70;99.90;;;;;;5051422;28;20463;-63
2023/10/04 02:28:26;;;;;;;2.80;2.13;;;12.80;99.90;;;;;;5051255;28;20455;-63
2023/10/04 02:30:55;;;;;;;2.00;0.55;;;12.60;99.90;;;;;;5051301;28;20069;-63
2023/10/04 02:33:22;;;;;;;1.17;1.05;;;12.60;99.90;;;;;;5055244;28;20056;-64
2023/10/04 02:35:48;;;;;;;0.43;0.40;;;12.70;99.90;;;;;;5055322;28;20480;-65
2023/10/04 02:38:31;;;;;;;0.10;0.10;;;12.70;99.90;;;;;;5054780;28;20045;-64
2023/10/04 02:40:59;;;;;;;1.35;0.90;;;13.00;99.90;;;;;;5054918;28;20389;-64
2023/10/04 02:43:25;;;;;;;0.25;0.20;;;12.80;99.90;;;;;;5055100;28;20052;-63
2023/10/04 02:45:52;;;;;;;0.13;0.13;;;12.40;99.90;;;;;;5055113;28;20052;-65
2023/10/04 02:48:23;;;;;;;0.40;0.40;;;12.60;99.90;;;;;;5054992;28;20479;-63
2023/10/04 02:50:49;;;;;;;0.40;0.40;;;13.10;99.90;;;;;;5054956;28;20048;-63
2023/10/04 02:53:17;;;;;;;0.20;0.20;;;13.00;99.90;;;;;;5055039;28;20095;-63
2023/10/04 02:55:43;;;;;;;0.43;0.43;;;12.90;99.90;;;;;;5054975;28;20068;-64
2023/10/04 02:58:10;;;;;;;3.95;0.65;;;12.60;99.90;;;;;;5054976;28;20061;-64
2023/10/04 03:00:43;;;;;;;0.20;0.20;;;12.60;99.90;;;;;;5054856;28;20053;-63
2023/10/04 03:03:09;;;;;;;0.65;0.65;;;12.60;99.90;;;;;;5054840;28;20053;-65
2023/10/04 03:05:35;;;;;;;0.30;0.30;;;12.80;99.90;;;;;;5054632;28;20128;-63
2023/10/04 03:08:06;;;;;;;0.20;0.20;;;12.60;99.90;;;;;;5054785;28;20049;-63
2023/10/04 03:10:33;;;;;;;0.20;0.20;;;13.00;99.90;;;;;;5054755;28;20048;-64
2023/10/04 03:13:11;;;;;;;0.20;0.20;;;12.70;99.90;;;;;;5054594;28;20579;-63
2023/10/04 03:15:40;;;;;;;0.13;0.13;;;12.70;99.90;;;;;;5054507;28;20458;-63
2023/10/04 03:18:25;;;;;;;3.85;1.00;;;12.70;99.90;;;;;;5054704;28;20382;-63
2023/10/04 03:23:34;;;;;;;0.20;0.20;;;12.90;99.90;;;;;;5054503;28;20072;-64
2023/10/04 03:26:03;;;;;;;0.10;0.10;;;12.50;99.90;;;;;;5054397;28;20053;-63
2023/10/04 03:28:37;;;;;;;0.20;0.20;;;12.40;99.90;;;;;;5053535;28;20049;-64
2023/10/04 03:31:14;;;;;;;1.55;1.45;;;12.50;99.90;;;;;;5054445;28;20049;-63
2023/10/04 03:33:40;;;;;;;;;;;12.40;99.90;;;;;;5054744;28;20041;-63
2023/10/04 03:36:06;;;;;;;0.30;0.30;;;12.30;99.90;;;;;;5053244;28;19928;-62
2023/10/04 03:38:35;;;;;;;0.38;0.38;;;12.20;99.90;;;;;;5054138;28;20057;-64
2023/10/04 03:41:03;;;;;;;0.17;0.17;;;12.10;99.90;;;;;;5054137;28;20520;-63
2023/10/04 03:43:29;;;;;;;0.47;0.47;;;12.20;99.90;;;;;;5053052;28;20045;-63
2023/10/04 03:45:55;;;;;;;0.20;0.20;;;12.20;99.90;;;;;;5054046;28;20513;-63
2023/10/04 03:48:23;;;;;;;0.20;0.20;;;12.20;99.90;;;;;;5054100;28;20053;-63
2023/10/04 03:50:51;;;;;;;0.98;0.88;;;12.40;99.90;;;;;;5054025;28;20094;-63
2023/10/04 03:53:21;;;;;;;0.30;0.30;;;12.50;99.90;;;;;;5054133;28;20535;-64
2023/10/04 03:55:47;;;;;;;0.35;0.35;;;12.30;99.90;;;;;;5054047;28;20568;-63
2023/10/04 03:58:19;;;;;;;0.28;0.28;;;12.30;99.90;;;;;;5053791;28;20147;-63
2023/10/04 04:00:46;;;;;;;1.05;0.98;;;12.70;99.90;;;;;;5053881;28;20045;-62
2023/10/04 04:03:12;;;;;;;0.40;0.40;;;12.70;99.90;;;;;;5053689;28;20124;-63
2023/10/04 04:05:44;;;;;;;0.30;0.30;;;12.30;99.90;;;;;;5053502;28;20671;-63
2023/10/04 04:08:12;;;;;;;0.10;0.10;;;12.60;99.90;;;;;;5053736;28;20060;-63
2023/10/04 04:10:38;;;;;;;1.75;1.55;;;12.40;99.90;;;;;;5053435;28;20797;-63
2023/10/04 04:13:05;;;;;;;0.20;0.20;;;12.60;99.90;;;;;;5053490;28;20518;-63
2023/10/04 04:15:34;;;;;;;0.77;0.68;;;12.50;99.90;;;;;;5052163;28;20041;-62
2023/10/04 04:18:04;;;;;;;0.20;0.20;;;12.40;99.90;;;;;;5053318;28;20056;-62
2023/10/04 04:20:31;;;;;;;0.17;0.17;;;12.60;99.90;;;;;;5053271;28;20049;-63
2023/10/04 04:22:57;;;;;;;0.10;0.10;;;12.30;99.90;;;;;;5053401;28;20439;-62
2023/10/04 04:25:24;;;;;;;0.35;0.35;;;12.20;99.90;;;;;;5053337;28;20068;-63
2023/10/04 04:27:51;;;;;;;0.30;0.30;;;12.60;99.90;;;;;;5053318;28;20049;-63
2023/10/04 04:30:23;;;;;;;0.47;0.47;;;12.40;99.90;;;;;;5053163;28;20073;-63
2023/10/04 04:32:56;;;;;;;0.20;0.20;;;12.60;99.90;;;;;;5053088;28;20052;-62
2023/10/04 04:38:24;;;;;;;0.20;0.20;;;12.60;99.90;;;;;;5053088;28;20496;-63
2023/10/04 04:40:58;;;;;;;0.40;0.25;;;12.60;99.90;;;;;;5052952;28;20096;-63
2023/10/04 04:43:36;;;;;;;0.55;0.30;;;12.10;99.90;;;;;;5052787;28;20064;-62
2023/10/04 04:46:07;;;;;;;0.75;0.75;;;12.20;99.90;;;;;;5052919;28;20493;-62
2023/10/04 04:48:36;;;;;;;0.10;0.10;;;12.50;99.90;;;;;;5052917;28;20175;-63
2023/10/04 04:51:10;;;;;;;0.10;0.10;;;12.50;99.90;;;;;;5052772;28;20457;-62
2023/10/04 04:53:39;;;;;;;0.20;0.20;;;12.40;99.90;;;;;;5052701;28;20531;-63
2023/10/04 04:56:08;;;;;;;0.40;0.40;;;12.00;99.90;;;;;;5052638;28;20586;-62
2023/10/04 04:58:34;;;;;;;0.20;0.20;;;12.50;99.90;;;;;;5052777;28;20091;-63
2023/10/04 05:01:02;;;;;;;;;;;12.10;99.90;;;;;;5053085;28;20131;-62
2023/10/04 05:03:28;;;;;;;0.10;0.10;;;12.40;99.90;;;;;;5052377;28;20463;-63
2023/10/04 05:05:58;;;;;;;3.58;0.40;;;12.10;99.90;;;;;;5052498;28;20131;-62
2023/10/04 05:08:25;;;;;;;0.50;0.50;;;12.20;99.90;;;;;;5052343;28;20055;-63
2023/10/04 05:10:51;;;;;;;0.55;0.43;;;11.90;99.90;;;;;;5052612;28;20099;-62
2023/10/04 05:13:24;;;;;;;1.00;0.65;;;12.50;99.90;;;;;;5052419;28;20106;-62
2023/10/04 05:15:50;;;;;;;0.77;0.60;;;12.00;99.90;;;;;;5052393;28;20052;-63
2023/10/04 05:18:17;;;;;;;0.65;0.57;;;12.10;99.90;;;;;;5052210;28;20055;-63
2023/10/04 05:20:53;;;;;;;0.28;0.28;;;12.40;99.90;;;;;;5051930;28;20110;-64
2023/10/04 05:23:23;;;;;;;0.30;0.30;;;12.30;99.90;;;;;;5052071;28;20048;-62
2023/10/04 05:25:53;;;;;;;1.02;1.02;;;12.30;99.90;;;;;;5052138;28;20091;-63
2023/10/04 05:28:19;;;;;;;0.30;0.30;;;12.00;99.90;;;;;;5051863;28;20045;-63
2023/10/04 05:30:46;;;;;;;0.30;0.30;;;12.00;99.90;;;;;;5051891;28;20172;-64
2023/10/04 05:33:18;;;;;;;0.30;0.30;;;12.00;99.90;;;;;;5051971;28;20084;-63
2023/10/04 05:35:44;;;;;;;0.10;0.10;;;12.30;99.90;;;;;;5052152;28;20127;-63
2023/10/04 05:38:17;;;;;;;5.15;0.47;;;12.10;99.90;;;;;;5052001;28;20163;-62
2023/10/04 05:40:44;;;;;;;0.40;0.40;;;12.00;99.90;;;;;;5051922;28;20056;-62
2023/10/04 05:43:13;;;;;;;0.32;0.32;;;12.00;99.90;;;;;;5051967;28;20095;-63
2023/10/04 05:45:42;;;;;;;0.40;0.40;;;11.90;99.90;;;;;;5051668;28;20092;-62
2023/10/04 05:48:11;;;;;;;27.85;0.75;;;11.90;99.90;;;;;;5052237;28;20092;-63
2023/10/04 05:50:39;;;;;;;0.38;0.38;;;11.80;99.90;;;;;;5051949;28;20101;-63
2023/10/04 05:53:07;;;;;;;0.52;0.43;;;11.70;99.90;;;;;;5038878;28;20052;-62
2023/10/04 05:55:37;;;;;;;1.65;0.52;;;11.50;99.90;;;;;;5051398;28;20131;-63
2023/10/04 05:58:07;;;;;;;0.80;0.68;;;11.90;99.90;;;;;;5051049;28;20062;-63
2023/10/04 06:00:34;;;;;;;1.73;0.90;;;11.50;99.90;;;;;;5050955;28;20562;-64
2023/10/04 06:03:15;;;;;;;0.20;0.20;;;12.00;99.90;;;;;;5051219;28;20123;-63
2023/10/04 06:05:41;;;;;;;0.35;0.35;;;12.10;99.90;;;;;;5050844;28;20048;-62
2023/10/04 06:08:15;;;;;;;0.45;0.28;;;11.70;99.90;;;;;;5049863;28;20071;-63
2023/10/04 06:10:42;;;;;;;4.07;0.57;;;11.50;99.90;;;;;;5051178;28;20124;-63
2023/10/04 06:13:11;;;;;;;0.25;0.25;;;11.80;99.90;;;;;;5050912;28;20084;-63
2023/10/04 06:15:44;;;;;;;0.20;0.20;;;11.70;99.90;;;;;;5050571;28;20119;-63
2023/10/04 06:18:13;;;;;;;0.20;0.20;;;11.60;99.90;;;;;;5050929;28;20459;-63
2023/10/04 06:20:40;;;;;;;0.38;0.38;;;11.60;99.90;;;;;;5051050;28;20061;-63
2023/10/04 06:23:14;;;;;;;0.40;0.40;;;11.40;99.90;;;;;;5050104;28;20410;-64
2023/10/04 06:25:48;;;;;;;0.20;0.20;;;11.70;99.90;;;;;;5047671;28;20698;-62
2023/10/04 06:28:15;;;;;;;0.20;0.20;;;11.60;99.90;;;;;;5032767;28;20042;-62
2023/10/04 06:30:48;;;;;;;1.45;1.30;;;11.70;99.90;;;;;;5028851;28;20053;-63
2023/10/04 06:33:15;;;;;;;3.00;1.13;;;12.00;99.90;;;;;;5046241;28;20059;-62
2023/10/04 06:35:44;;;;;;;0.88;0.88;;;11.60;99.90;;;;;;5050744;28;20041;-63
2023/10/04 06:38:11;;;;;;;0.90;0.90;;;11.60;99.90;;;;;;5047657;28;20055;-62
2023/10/04 06:40:38;;;;;;;0.63;0.30;;;12.30;99.90;;;;;;5050002;28;20065;-63
2023/10/04 06:43:06;;;;;;;0.95;0.95;;;11.80;99.90;;;;;;5051150;28;20068;-62
2023/10/04 06:45:33;;;;;;;0.28;0.28;;;12.10;99.90;;;;;;5050938;28;20059;-62
2023/10/04 06:48:00;;;;;;;0.60;0.60;;;12.30;99.90;;;;;;5051115;28;20412;-62
2023/10/04 06:50:35;;;;;;;2.97;1.00;;;12.20;99.90;;;;;;5050925;28;20051;-62
2023/10/04 06:53:02;;;;;;;0.43;0.43;;;12.40;99.90;;;;;;5051182;28;20107;-62
2023/10/04 06:55:30;;;;;;;0.20;0.20;;;12.20;99.90;;;;;;5050619;28;20404;-63
2023/10/04 06:57:55;;;;;;;1.20;1.20;;;12.40;99.90;;;;;;5050485;28;20409;-63
2023/10/04 07:00:26;;;;;;;0.98;0.88;;;12.00;99.90;;;;;;5050922;28;20059;-62
2023/10/04 07:02:58;;;;;;;0.40;0.40;;;12.50;99.90;;;;;;5050879;28;20100;-63
2023/10/04 07:05:37;;;;;;;0.10;0.10;;;12.60;99.90;;;;;;5050988;28;20041;-64
2023/10/04 07:08:08;;;;;;;0.28;0.28;;;12.60;99.90;;;;;;5051019;28;20041;-62
2023/10/04 07:10:35;;;;;;;0.77;0.77;;;12.50;99.90;;;;;;5050752;28;20519;-63
2023/10/04 07:13:02;;;;;;;0.73;0.73;;;12.60;99.90;;;;;;5050799;28;20049;-63
2023/10/04 07:15:30;;;;;;;0.40;0.40;;;12.90;99.90;;;;;;5049877;28;20057;-63
2023/10/04 07:17:56;;;;;;;5.60;0.90;;;12.90;99.90;;;;;;5052736;28;20060;-62
2023/10/04 07:20:24;;;;;;;0.35;0.35;;;13.00;99.90;;;;;;5054822;28;20052;-62
2023/10/04 07:22:58;;;;;;;1.10;0.63;;;13.00;99.90;;;;;;5054164;28;20052;-63
2023/10/04 07:25:29;;;;;;;0.98;0.93;;;12.70;99.90;;;;;;5054408;28;20733;-63
2023/10/04 07:28:02;;;;;;;0.25;0.25;;;13.40;99.90;;;;;;5054329;28;20048;-63
2023/10/04 07:30:29;;;;;;;1.35;1.10;;;13.40;99.90;;;;;;5054607;28;20148;-62
2023/10/04 07:32:58;;;;;;;0.20;0.20;;;13.40;99.90;;;;;;5054720;28;20049;-63
2023/10/04 07:35:25;;;;;;;0.30;0.30;;;13.70;99.90;;;;;;5054483;28;20037;-62
2023/10/04 07:37:52;;;;;;;0.30;0.30;;;13.30;99.90;;;;;;5054272;28;20059;-63
2023/10/04 07:40:20;;;;;;;0.60;0.60;;;13.70;99.90;;;;;;5053803;28;20048;-63
2023/10/04 07:42:46;;;;;;;0.43;0.35;;;13.90;99.90;;;;;;5053969;28;20056;-63
2023/10/04 07:45:13;;;;;;;0.55;0.55;;;13.30;99.90;;;;;;5054093;28;20147;-63
2023/10/04 07:47:43;;;;;;;0.20;0.20;;;14.00;99.90;;;;;;5054087;28;20439;-63
2023/10/04 07:50:14;;;;;;;0.22;0.22;;;13.90;99.90;;;;;;5054034;28;20045;-63
2023/10/04 07:52:42;;;;;;;0.50;0.50;;;14.00;99.90;;;;;;5053749;28;20055;-64
2023/10/04 07:55:18;;;;;;;0.50;0.50;;;14.20;99.90;;;;;;5053713;28;20369;-63
2023/10/04 07:57:45;;;;;;;0.40;0.40;;;14.30;99.90;;;;;;5054001;28;20053;-64
2023/10/04 08:00:13;;;;;;;1.05;0.95;;;14.60;99.90;;;;;;5052548;28;20059;-64
2023/10/04 08:02:51;;;;;;;0.20;0.20;;;14.30;99.90;;;;;;5053846;28;20139;-63
2023/10/04 08:05:20;;;;;;;0.20;0.20;;;14.30;99.90;;;;;;5053604;28;20072;-63
2023/10/04 08:07:56;;;;;;;0.63;0.30;;;14.50;99.90;;;;;;5053334;28;20053;-63
2023/10/04 08:10:25;;;;;;;;;;;14.90;99.90;;;;;;5054124;28;20106;-64
2023/10/04 08:12:53;;;;;;;2.08;0.68;;;14.80;99.90;;;;;;5052633;28;19951;-64
2023/10/04 08:15:21;;;;;;;0.65;0.65;;;15.30;99.90;;;;;;5053487;28;20041;-63
2023/10/04 08:17:52;;;;;;;0.57;0.47;;;15.10;99.90;;;;;;5053385;28;20833;-64
2023/10/04 08:20:19;;;;;;;2.78;1.75;;;14.90;99.90;;;;;;5053264;28;20059;-64
2023/10/04 08:22:45;;;;;;;0.45;0.45;;;14.80;99.90;;;;;;5053500;28;20116;-63
2023/10/04 08:25:17;;;;;;;;;;;14.70;99.90;;;;;;5052677;28;20041;-64
2023/10/04 08:27:44;;;;;;;0.43;0.43;;;15.10;99.90;;;;;;5053437;28;19925;-64
2023/10/04 08:30:11;;;;;;;0.50;0.50;;;14.90;99.90;;;;;;5052655;28;20045;-63
2023/10/04 08:32:41;;;;;;;0.47;0.47;;;15.00;99.90;;;;;;5053086;28;20127;-63
2023/10/04 08:35:09;;;;;;;0.32;0.32;;;15.40;99.90;;;;;;5053296;28;20084;-65
2023/10/04 08:37:34;;;;;;;0.68;0.63;;;14.90;99.90;;;;;;5053147;28;20137;-64
2023/10/04 08:40:01;;;;;;;1.48;1.42;;;15.50;99.90;;;;;;5053082;28;20144;-64
2023/10/04 08:42:28;;;;;;;1.40;0.90;;;15.50;99.90;;;;;;5052644;28;20069;-65
2023/10/04 08:44:54;;;;;;;0.93;0.93;;;15.80;99.90;;;;;;5052800;28;20485;-65
2023/10/04 08:47:22;;;;;;;1.00;0.30;;;15.50;99.90;;;;;;5052751;28;20056;-64
2023/10/04 08:49:55;;;;;;;0.75;0.45;;;15.70;99.90;;;;;;5052935;28;20503;-65
2023/10/04 08:52:35;;;;;;;2.63;0.80;;;15.70;99.90;;;;;;5052854;28;20084;-65
2023/10/04 08:55:07;;;;;;;0.30;0.30;;;15.90;99.90;;;;;;5052784;28;20763;-63
2023/10/04 08:57:36;;;;;;;1.17;1.08;;;15.90;99.90;;;;;;5052623;28;20770;-64
2023/10/04 09:00:06;;;;;;;0.75;0.50;;;16.20;99.90;;;;;;5052727;28;20045;-64
2023/10/04 09:02:33;;;;;;;1.52;1.42;;;15.80;99.90;;;;;;5052595;28;20064;-64
2023/10/04 09:05:00;;;;;;;0.52;0.52;;;16.50;99.90;;;;;;5052513;28;20396;-64
2023/10/04 09:07:26;;;;;;;0.20;0.20;;;16.30;99.90;;;;;;5052381;28;20045;-63
2023/10/04 09:09:56;;;;;;;1.05;0.95;;;16.60;99.90;;;;;;5052359;28;20053;-64
2023/10/04 09:12:22;;;;;;;0.88;0.88;;;16.10;99.90;;;;;;5052225;28;20068;-64
2023/10/04 09:14:48;;;;;;;0.25;0.25;;;16.60;99.90;;;;;;5052512;28;20473;-64
2023/10/04 09:17:14;;;;;;;4.95;0.52;;;16.50;99.90;;;;;;5052363;28;20075;-63
2023/10/04 09:19:41;;;;;;;;;;;16.50;99.90;;;;;;5052767;28;20049;-65
2023/10/04 09:22:07;;;;;;;0.52;0.52;;;16.50;99.90;;;;;;5051222;28;20288;-64
2023/10/04 09:24:56;;;;;;;0.43;0.32;;;16.50;99.90;;;;;;5052123;28;20037;-64
2023/10/04 09:27:23;;;;;;;0.50;0.50;;;16.30;99.90;;;;;;5051939;28;20052;-64
2023/10/04 09:29:49;;;;;;;0.10;0.10;;;16.50;99.90;;;;;;5052319;28;20427;-64
2023/10/04 09:32:38;;;;;;;1.85;0.73;;;16.90;99.90;;;;;;5052330;28;20047;-63
2023/10/04 09:35:05;;;;;;;0.28;0.28;;;16.80;99.90;;;;;;5052027;28;20084;-64
2023/10/04 09:37:31;;;;;;;7.20;0.75;;;16.50;99.90;;;;;;5048331;28;20117;-61
2023/10/04 09:40:08;;;;;;;;;;;17.10;99.90;;;;;;5050502;28;20142;-64
2023/10/04 09:42:53;;;;;;;4.00;2.30;;;17.00;99.90;;;;;;5048869;28;19920;-63
2023/10/04 09:45:31;;;;;;;0.52;0.52;;;17.10;99.90;;;;;;5050706;28;20052;-64
2023/10/04 09:48:02;;;;;;;2.60;0.32;;;17.10;99.90;;;;;;5051739;28;20048;-66
2023/10/04 09:50:28;;;;;;;11.50;0.68;;;16.90;99.90;;;;;;5051935;28;20059;-64
2023/10/04 09:52:54;;;;;;;0.47;0.47;;;17.20;99.90;;;;;;5050739;28;20052;-64
2023/10/04 09:55:23;;;;;;;0.65;0.65;;;17.10;99.90;;;;;;5051609;28;20110;-65
2023/10/04 09:57:49;;;;;;;0.65;0.65;;;17.00;99.90;;;;;;5051554;28;20045;-63
2023/10/04 10:00:18;;;;;;;0.68;0.52;;;17.20;99.90;;;;;;5051465;28;20122;-64
2023/10/04 10:02:51;;;;;;;0.90;0.82;;;17.40;99.90;;;;;;5051574;28;20052;-62
2023/10/04 10:05:26;;;;;;;0.85;0.40;;;15.00;99.90;;;;;;5051533;28;20052;-64
2023/10/04 10:07:53;;;;;;;3.50;0.73;;;17.40;99.90;;;;;;5051317;28;20053;-64
2023/10/04 10:10:21;;;;;;;0.30;0.30;;;17.20;99.90;;;;;;5051379;28;20053;-64
2023/10/04 10:12:51;;;;;;;0.40;0.40;;;17.50;99.90;;;;;;5040919;28;20056;-67
2023/10/04 10:15:21;;;;;;;0.20;0.20;;;17.20;99.90;;;;;;5049263;28;20044;-62
2023/10/04 10:17:48;;;;;;;1.45;1.00;;;17.00;99.90;;;;;;5050375;28;20052;-64
2023/10/04 10:20:16;;;;;;;0.65;0.60;;;17.10;99.90;;;;;;5050462;28;20082;-65
2023/10/04 10:22:59;;;;;;;0.10;0.10;;;17.20;99.90;;;;;;5050198;28;20587;-64
2023/10/04 10:25:26;;;;;;;0.30;0.30;;;16.80;99.90;;;;;;5050644;28;20041;-63
2023/10/04 10:28:01;;;;;;;0.47;0.47;;;16.70;99.90;;;;;;5050127;28;20140;-64
2023/10/04 10:30:28;;;;;;;0.90;0.90;;;16.90;99.90;;;;;;5050755;28;20084;-66
2023/10/04 10:32:58;;;;;;;1.75;1.13;;;16.70;99.90;;;;;;5050813;28;20052;-64
2023/10/04 10:35:48;;;;;;;5.05;1.45;;;17.10;99.90;;;;;;5050318;28;20049;-64
2023/10/04 10:38:43;;;;;;;1.05;1.02;;;16.70;99.90;;;;;;5050977;28;20052;-64
2023/10/04 10:41:32;;;;;;;2.35;0.75;;;16.70;99.90;;;;;;5046703;28;20107;-64
2023/10/04 10:44:19;;;;;;;4.55;1.55;;;16.50;99.90;;;;;;5041579;28;20128;-65
2023/10/04 10:46:55;;;;;;;5.35;2.10;;;16.70;99.90;;;;;;5030958;28;20079;-64
2023/10/04 10:49:58;;;;;;;1.00;0.60;;;16.80;99.90;;;;;;5030579;28;20053;-65
2023/10/04 10:52:46;;;;;;;0.82;0.50;;;17.10;99.90;;;;;;5030851;28;20092;-63
2023/10/04 10:55:19;;;;;;;0.85;0.30;;;16.60;99.90;;;;;;5034701;28;20068;-64
2023/10/04 10:57:50;;;;;;;0.20;0.20;;;16.50;99.90;;;;;;5034680;28;20053;-64
2023/10/04 11:02:48;;;;;;;0.40;0.38;;;16.90;99.90;;;;;;5034830;28;20053;-64
2023/10/04 11:05:16;;;;;;;0.22;0.22;;;16.80;99.90;;;;;;5034972;28;20049;-64
2023/10/04 11:07:47;;;;;;;2.55;1.60;;;16.70;99.90;;;;;;5034960;28;20080;-64
2023/10/04 11:10:17;;;;;;;0.20;0.20;;;16.60;99.90;;;;;;5034913;28;20053;-64
2023/10/04 11:12:47;;;;;;;0.60;0.60;;;16.70;99.90;;;;;;5035000;28;20056;-64
2023/10/04 11:15:17;;;;;;;2.50;1.38;;;16.80;99.90;;;;;;5034546;28;20045;-65
2023/10/04 11:17:43;;;;;;;1.83;1.05;;;16.40;99.90;;;;;;5034614;28;20057;-65
2023/10/04 11:20:11;;;;;;;0.80;0.68;;;16.60;99.90;;;;;;5034705;28;20049;-64
2023/10/04 11:22:38;;;;;;;1.48;1.08;;;17.00;99.90;;;;;;5034601;28;20053;-64
2023/10/04 11:25:06;;;;;;;1.45;1.35;;;16.60;99.90;;;;;;5034546;28;20044;-65
2023/10/04 11:27:33;;;;;;;2.63;0.73;;;16.80;99.90;;;;;;5034790;28;20136;-65
2023/10/04 11:29:59;;;;;;;2.67;1.35;;;16.90;99.90;;;;;;5034464;28;20053;-63
2023/10/04 11:32:28;;;;;;;0.50;0.40;;;16.90;99.90;;;;;;5034521;28;20091;-64
2023/10/04 11:34:57;;;;;;;2.45;1.17;;;16.90;99.90;;;;;;5034540;28;20045;-64
2023/10/04 11:37:29;;;;;;;1.50;1.13;;;16.90;99.90;;;;;;5033357;28;20085;-65
2023/10/04 11:39:55;;;;;;;0.47;0.47;;;17.00;99.90;;;;;;5034324;28;20103;-64
2023/10/04 11:42:22;;;;;;;11.80;3.42;;;16.80;99.90;;;;;;5033893;28;20067;-64
2023/10/04 11:44:48;;;;;;;1.48;0.45;;;16.70;99.90;;;;;;5034048;28;20136;-64
2023/10/04 11:47:25;;;;;;;0.28;0.28;;;16.70;99.90;;;;;;5034337;28;20049;-64
2023/10/04 11:50:04;;;;;;;1.27;0.73;;;17.00;99.90;;;;;;5033012;28;20045;-64
2023/10/04 11:52:31;;;;;;;1.00;0.95;;;16.70;99.90;;;;;;5033996;28;20085;-65
2023/10/04 11:54:58;;;;;;;2.35;0.95;;;16.60;99.90;;;;;;5033846;28;20045;-64
2023/10/04 11:57:26;;;;;;;0.85;0.80;;;17.10;99.90;;;;;;5033912;28;20057;-65
2023/10/04 11:59:52;;;;;;;0.55;0.47;;;17.00;99.90;;;;;;5033953;28;20060;-64
2023/10/04 12:02:22;;;;;;;0.20;0.13;;;17.10;99.90;;;;;;5033881;28;20507;-66
2023/10/04 12:04:48;;;;;;;1.85;0.88;;;17.10;99.90;;;;;;5032737;28;20045;-65
2023/10/04 12:07:14;;;;;;;2.83;0.88;;;17.40;99.90;;;;;;5033554;28;20405;-64
2023/10/04 12:09:40;;;;;;;0.55;0.52;;;17.40;99.90;;;;;;5033367;28;20088;-67
2023/10/04 12:12:06;;;;;;;0.90;0.80;;;17.50;99.90;;;;;;5033744;28;20131;-65
2023/10/04 12:14:32;;;;;;;;;;;17.80;99.90;;;;;;5033925;28;20045;-65
2023/10/04 12:17:02;;;;;;;0.57;0.57;;;17.70;99.90;;;;;;5033689;28;19948;-63
2023/10/04 12:19:30;;;;;;;0.20;0.20;;;17.40;99.90;;;;;;5033578;28;20904;-64
2023/10/04 12:21:57;;;;;;;0.20;0.20;;;17.30;99.90;;;;;;5033516;28;20049;-66
2023/10/04 12:24:22;;;;;;;1.08;0.40;;;17.60;99.90;;;;;;5033506;28;20053;-64
2023/10/04 12:26:48;;;;;;;0.45;0.45;;;17.70;99.90;;;;;;5033634;28;20053;-64
2023/10/04 12:29:14;;;;;;;;;;;17.50;99.90;;;;;;5033836;28;20057;-65
2023/10/04 12:31:39;;;;;;;0.47;0.47;;;17.70;99.90;;;;;;5033337;28;19943;-64
2023/10/04 12:34:05;;;;;;;;;;;17.40;99.90;;;;;;5033644;28;20037;-64
2023/10/04 12:36:31;;;;;;;0.30;0.30;;;17.70;99.90;;;;;;5033202;28;19928;-64
2023/10/04 12:38:57;;;;;;;1.10;0.40;;;17.50;99.90;;;;;;5031754;28;20069;-65
2023/10/04 12:41:22;;;;;;;0.52;0.47;;;17.30;99.90;;;;;;5032810;28;20061;-65
2023/10/04 12:43:48;;;;;;;0.10;0.10;;;17.50;99.90;;;;;;5033083;28;20058;-65
2023/10/04 12:46:14;;;;;;;;;;;17.60;99.90;;;;;;5033464;28;20053;-65
2023/10/04 12:48:39;;;;;;;0.75;0.75;;;17.70;99.90;;;;;;5033003;28;20284;-65
2023/10/04 12:51:05;;;;;;;0.30;0.30;;;17.20;99.90;;;;;;5033047;28;20045;-64
2023/10/04 12:53:31;;;;;;;0.73;0.15;;;17.40;99.90;;;;;;5032908;28;20045;-65
2023/10/04 12:55:57;;;;;;;0.20;0.20;;;17.40;99.90;;;;;;5033210;28;20061;-65
2023/10/04 12:58:23;;;;;;;1.17;0.57;;;17.20;99.90;;;;;;5033197;28;20053;-65
2023/10/04 13:00:50;;;;;;;3.97;0.90;;;17.90;99.90;;;;;;5033032;28;20045;-65
2023/10/04 13:03:17;;;;;;;5.22;1.25;;;17.50;99.90;;;;;;5032796;28;20045;-64
2023/10/04 13:05:43;;;;;;;0.10;0.10;;;17.40;99.90;;;;;;5032480;28;20037;-64
2023/10/04 13:08:15;;;;;;;0.22;0.15;;;17.50;99.90;;;;;;5032521;28;20056;-65